Time;durP1;ratioP1;P1;durP2;ratioP2;P2;SDS_P1;SDS_P2;PMS_P1;PMS_P2;Temp;Humidity;BMP_temperature;BMP_pressure;BME280_temperature;BME280_humidity;BME280_pressure;Samples;Min_cycle;Max_cycle;Signal;HPM_P1;HPM_P2
2023/05/30 00:01:57;;;;;;;1.23;1.13;;;15.70;70.20;;;;;;5032068;28;20076;-77
2023/05/30 00:04:23;;;;;;;1.30;1.20;;;15.80;70.40;;;;;;5033066;28;20029;-77
2023/05/30 00:06:49;;;;;;;1.15;1.05;;;15.70;70.50;;;;;;5032225;28;20026;-78
2023/05/30 00:09:15;;;;;;;1.20;1.10;;;15.70;71.30;;;;;;5033969;28;20049;-78
2023/05/30 00:11:40;;;;;;;0.73;0.73;;;15.60;70.70;;;;;;5034545;28;20027;-77
2023/05/30 00:14:08;;;;;;;0.68;0.68;;;15.60;70.90;;;;;;5032830;28;20066;-77
2023/05/30 00:16:34;;;;;;;0.80;0.80;;;15.60;71.00;;;;;;5025420;28;20030;-78
2023/05/30 00:19:00;;;;;;;0.82;0.80;;;15.60;71.10;;;;;;5019044;28;20390;-76
2023/05/30 00:21:27;;;;;;;1.10;1.00;;;15.60;71.20;;;;;;5021214;28;20017;-77
2023/05/30 00:23:53;;;;;;;0.63;0.63;;;15.60;71.50;;;;;;5029364;28;20136;-78
2023/05/30 00:26:18;;;;;;;1.10;1.00;;;15.50;71.60;;;;;;5023716;28;20034;-77
2023/05/30 00:28:44;;;;;;;1.08;0.98;;;15.50;71.80;;;;;;5039834;28;20077;-77
2023/05/30 00:31:10;;;;;;;0.80;0.80;;;15.50;72.00;;;;;;5023480;28;20466;-76
2023/05/30 00:33:35;;;;;;;0.90;0.90;;;15.40;72.20;;;;;;5029275;28;20501;-78
2023/05/30 00:36:02;;;;;;;1.13;1.02;;;15.40;72.60;;;;;;5021715;28;20026;-76
2023/05/30 00:38:28;;;;;;;1.20;1.10;;;15.40;73.00;;;;;;5032783;28;20029;-77
2023/05/30 00:40:54;;;;;;;1.42;1.05;;;;;;;;;;5039822;28;20041;-78
2023/05/30 00:43:21;;;;;;;1.50;1.40;;;15.20;72.90;;;;;;5020438;28;20085;-78
2023/05/30 00:45:52;;;;;;;1.60;1.42;;;15.10;73.70;;;;;;5022032;28;20022;-78
2023/05/30 00:48:18;;;;;;;2.33;1.75;;;15.10;74.00;;;;;;5029743;28;20138;-78
2023/05/30 00:50:44;;;;;;;2.40;1.90;;;15.00;74.00;;;;;;5022955;28;20046;-78
2023/05/30 00:53:10;;;;;;;1.70;1.60;;;15.00;74.10;;;;;;5031382;28;20045;-78
2023/05/30 00:55:36;;;;;;;2.38;2.00;;;14.90;74.10;;;;;;5013193;28;20061;-78
2023/05/30 00:58:02;;;;;;;1.80;1.70;;;14.80;74.20;;;;;;5015562;28;20025;-77
2023/05/30 01:00:29;;;;;;;1.85;1.60;;;14.80;74.40;;;;;;5017241;28;20032;-77
2023/05/30 01:02:59;;;;;;;1.33;1.23;;;14.70;74.50;;;;;;5017009;28;20402;-77
2023/05/30 01:05:28;;;;;;;2.35;1.50;;;14.60;74.60;;;;;;5022718;28;20026;-76
2023/05/30 01:07:54;;;;;;;2.70;2.00;;;14.60;74.50;;;;;;5013747;28;20030;-78
2023/05/30 01:10:21;;;;;;;2.63;1.92;;;14.50;74.50;;;;;;5023939;28;20068;-78
2023/05/30 01:13:16;;;;;;;3.88;2.78;;;14.40;74.70;;;;;;5021347;28;20490;-77
2023/05/30 01:16:02;;;;;;;3.78;2.65;;;14.30;75.00;;;;;;5018682;28;20022;-76
2023/05/30 01:18:35;;;;;;;3.17;2.30;;;14.20;75.60;;;;;;5035644;28;20050;-77
2023/05/30 01:21:10;;;;;;;3.25;2.70;;;14.10;76.00;;;;;;5016644;28;20022;-77
2023/05/30 01:23:54;;;;;;;4.88;2.88;;;14.10;76.90;;;;;;5014933;28;20026;-78
2023/05/30 01:26:55;;;;;;;4.05;2.58;;;14.00;76.60;;;;;;5025498;28;20025;-78
2023/05/30 01:29:24;;;;;;;3.58;2.35;;;14.00;76.90;;;;;;4981331;28;20034;-78
2023/05/30 01:31:50;;;;;;;4.10;2.60;;;14.00;77.10;;;;;;5016975;28;20029;-78
2023/05/30 01:34:17;;;;;;;4.07;2.80;;;14.00;77.20;;;;;;5023240;28;20074;-77
2023/05/30 01:36:42;;;;;;;4.03;2.60;;;14.00;77.10;;;;;;5014522;28;20368;-77
2023/05/30 01:39:09;;;;;;;4.05;2.60;;;13.90;77.10;;;;;;5016123;28;20087;-77
2023/05/30 01:42:01;;;;;;;3.47;2.67;;;13.90;77.10;;;;;;5021000;28;20025;-78
2023/05/30 01:44:36;;;;;;;3.03;2.10;;;13.90;77.20;;;;;;5016078;28;20070;-77
2023/05/30 01:47:22;;;;;;;3.72;2.38;;;13.90;77.20;;;;;;5038269;28;20030;-78
2023/05/30 01:50:04;;;;;;;4.40;2.58;;;13.90;77.20;;;;;;5022018;28;20074;-79
2023/05/30 01:52:36;;;;;;;4.10;2.65;;;13.90;77.20;;;;;;5005210;28;20050;-76
2023/05/30 01:55:05;;;;;;;3.60;2.50;;;13.80;77.20;;;;;;5013716;28;20328;-77
2023/05/30 01:57:32;;;;;;;2.83;2.22;;;13.80;77.20;;;;;;5039108;28;20044;-77
2023/05/30 01:59:59;;;;;;;3.75;2.25;;;13.80;77.10;;;;;;5027345;28;20018;-77
2023/05/30 02:02:25;;;;;;;2.70;2.20;;;13.80;77.20;;;;;;5030212;28;20084;-77
2023/05/30 02:04:51;;;;;;;2.47;2.28;;;13.80;77.20;;;;;;5028091;28;20109;-78
2023/05/30 02:07:16;;;;;;;2.60;1.80;;;13.80;77.30;;;;;;5020527;28;20108;-77
2023/05/30 02:09:44;;;;;;;3.28;2.22;;;13.80;77.30;;;;;;5024928;28;20026;-77
2023/05/30 02:12:09;;;;;;;3.95;2.35;;;13.80;77.30;;;;;;5016440;28;20053;-78
2023/05/30 02:14:36;;;;;;;1.95;1.77;;;13.70;77.30;;;;;;5015256;28;20041;-78
2023/05/30 02:17:02;;;;;;;2.22;2.00;;;13.70;77.40;;;;;;5016018;28;20084;-77
2023/05/30 02:19:28;;;;;;;2.40;1.35;;;13.70;77.50;;;;;;5015801;28;20018;-77
2023/05/30 02:21:54;;;;;;;1.63;1.52;;;13.70;77.60;;;;;;5013808;28;20022;-77
2023/05/30 02:24:22;;;;;;;1.95;1.85;;;13.70;77.50;;;;;;5016254;28;20035;-78
2023/05/30 02:26:48;;;;;;;1.65;1.55;;;13.70;77.40;;;;;;5015338;28;20018;-78
2023/05/30 02:29:14;;;;;;;2.63;1.88;;;13.70;77.40;;;;;;5014434;28;20040;-77
2023/05/30 02:31:39;;;;;;;2.58;1.90;;;13.60;77.70;;;;;;5021494;28;20033;-78
2023/05/30 02:34:05;;;;;;;3.03;2.20;;;13.50;77.70;;;;;;5021110;28;20022;-77
2023/05/30 02:36:32;;;;;;;2.33;1.98;;;13.50;78.10;;;;;;5021970;28;20101;-78
2023/05/30 02:39:04;;;;;;;2.00;1.60;;;13.50;78.20;;;;;;5026309;28;20033;-78
2023/05/30 02:41:30;;;;;;;;;;;13.50;78.30;;;;;;5017461;28;20096;-78
2023/05/30 02:43:55;;;;;;;2.25;2.00;;;13.50;78.50;;;;;;5015286;28;19905;-79
2023/05/30 02:46:21;;;;;;;3.53;1.48;;;13.50;78.50;;;;;;5022645;28;20387;-77
2023/05/30 02:48:47;;;;;;;2.42;1.83;;;13.50;78.50;;;;;;5027539;28;20034;-79
2023/05/30 02:51:12;;;;;;;2.60;1.80;;;13.40;78.60;;;;;;5023318;28;20045;-78
2023/05/30 02:53:39;;;;;;;3.13;1.77;;;13.40;78.70;;;;;;5030147;28;20022;-78
2023/05/30 02:56:05;;;;;;;2.72;1.60;;;13.40;78.70;;;;;;5023899;28;20029;-76
2023/05/30 02:58:30;;;;;;;1.65;1.50;;;13.40;78.80;;;;;;5031280;28;20029;-78
2023/05/30 03:00:56;;;;;;;3.50;1.67;;;13.40;78.90;;;;;;5027412;28;20089;-78
2023/05/30 03:03:24;;;;;;;2.58;1.70;;;13.40;78.90;;;;;;5037562;28;20026;-77
2023/05/30 03:05:51;;;;;;;1.98;1.48;;;13.40;78.90;;;;;;5028088;28;20033;-78
2023/05/30 03:08:16;;;;;;;2.65;2.20;;;13.40;78.80;;;;;;5016965;28;20033;-77
2023/05/30 03:10:42;;;;;;;2.05;1.60;;;13.40;78.80;;;;;;5029583;28;20200;-78
2023/05/30 03:13:08;;;;;;;2.58;1.88;;;13.40;78.80;;;;;;5017596;28;20506;-78
2023/05/30 03:15:34;;;;;;;3.13;2.00;;;13.40;78.70;;;;;;5016894;28;20026;-78
2023/05/30 03:18:00;;;;;;;2.05;1.80;;;13.40;78.70;;;;;;5022922;28;20052;-79
2023/05/30 03:20:26;;;;;;;3.08;1.58;;;13.40;78.70;;;;;;5034508;28;20029;-79
2023/05/30 03:22:52;;;;;;;2.58;1.92;;;13.40;78.80;;;;;;5035429;28;20029;-79
2023/05/30 03:25:17;;;;;;;2.20;1.70;;;13.40;78.90;;;;;;5035682;28;20010;-79
2023/05/30 03:27:50;;;;;;;2.20;1.73;;;13.40;79.10;;;;;;5035660;28;20070;-77
2023/05/30 03:30:17;;;;;;;2.63;1.85;;;13.40;79.20;;;;;;5034663;28;20041;-78
2023/05/30 03:32:42;;;;;;;3.15;2.05;;;13.30;79.20;;;;;;5035481;28;20161;-77
2023/05/30 03:35:08;;;;;;;1.83;1.73;;;13.30;79.90;;;;;;5024615;28;20117;-77
2023/05/30 03:37:34;;;;;;;2.40;2.10;;;13.30;79.30;;;;;;5029505;28;20022;-73
2023/05/30 03:40:00;;;;;;;1.73;1.60;;;13.30;79.30;;;;;;5011143;28;20489;-74
2023/05/30 03:42:26;;;;;;;2.47;1.67;;;13.30;79.30;;;;;;5011574;28;20440;-73
2023/05/30 03:44:51;;;;;;;2.15;1.70;;;13.30;79.30;;;;;;5006382;28;20026;-74
2023/05/30 03:47:17;;;;;;;1.95;1.63;;;13.40;79.30;;;;;;5010103;28;20052;-74
2023/05/30 03:49:43;;;;;;;2.65;1.45;;;13.40;79.20;;;;;;5017705;28;20052;-73
2023/05/30 03:52:08;;;;;;;1.80;1.70;;;13.40;79.10;;;;;;5028610;28;20113;-73
2023/05/30 03:54:34;;;;;;;2.45;1.80;;;13.40;79.00;;;;;;5019144;28;20041;-75
2023/05/30 03:57:00;;;;;;;2.17;1.42;;;13.40;78.80;;;;;;5028765;28;20048;-74
2023/05/30 03:59:26;;;;;;;1.80;1.52;;;13.40;78.80;;;;;;5030487;28;20045;-77
2023/05/30 04:01:51;;;;;;;2.00;1.58;;;13.40;78.70;;;;;;5030507;28;20041;-77
2023/05/30 04:04:17;;;;;;;2.13;1.50;;;13.40;78.70;;;;;;5023708;28;20025;-77
2023/05/30 04:06:43;;;;;;;1.80;1.65;;;13.50;78.80;;;;;;5033871;28;20045;-78
2023/05/30 04:09:09;;;;;;;1.35;1.25;;;13.50;78.70;;;;;;5015598;28;20091;-78
2023/05/30 04:11:34;;;;;;;1.88;1.58;;;13.50;78.60;;;;;;5013803;28;20399;-75
2023/05/30 04:14:00;;;;;;;1.80;1.63;;;13.60;78.50;;;;;;5014256;28;20426;-76
2023/05/30 04:16:26;;;;;;;2.47;1.20;;;13.60;78.90;;;;;;5013802;28;20092;-76
2023/05/30 04:18:51;;;;;;;2.08;1.50;;;13.70;78.10;;;;;;5013665;28;20045;-76
2023/05/30 04:21:17;;;;;;;1.60;1.50;;;13.70;78.10;;;;;;5015747;28;20028;-76
2023/05/30 04:23:43;;;;;;;2.33;1.75;;;13.70;77.90;;;;;;5032695;28;20049;-78
2023/05/30 04:26:09;;;;;;;1.50;1.38;;;13.70;77.70;;;;;;5030450;28;20068;-77
2023/05/30 04:28:38;;;;;;;2.17;1.80;;;13.70;77.50;;;;;;5023765;28;20036;-77
2023/05/30 04:31:05;;;;;;;3.25;2.15;;;13.70;77.30;;;;;;5018638;28;20084;-76
2023/05/30 04:33:35;;;;;;;2.08;1.85;;;13.80;77.20;;;;;;5040088;28;20084;-75
2023/05/30 04:36:10;;;;;;;2.75;1.77;;;13.90;76.90;;;;;;5025770;28;20022;-77
2023/05/30 04:38:37;;;;;;;3.08;1.98;;;13.90;76.60;;;;;;5025093;28;20022;-79
2023/05/30 04:41:04;;;;;;;4.95;2.20;;;13.90;76.40;;;;;;5019029;28;20096;-78
2023/05/30 04:43:30;;;;;;;3.55;2.00;;;13.90;76.20;;;;;;5011255;28;20026;-79
2023/05/30 04:46:00;;;;;;;2.38;1.98;;;14.00;76.30;;;;;;5011451;28;20428;-78
2023/05/30 04:48:28;;;;;;;2.38;1.90;;;14.00;76.20;;;;;;5014611;28;20022;-80
2023/05/30 04:50:54;;;;;;;5.90;2.45;;;14.10;76.30;;;;;;5019345;28;20025;-79
2023/05/30 04:53:20;;;;;;;2.05;1.80;;;14.10;76.10;;;;;;5016403;28;20033;-79
2023/05/30 04:55:46;;;;;;;3.83;2.83;;;14.10;76.00;;;;;;5017164;28;20371;-79
2023/05/30 04:58:13;;;;;;;2.03;1.80;;;14.20;76.30;;;;;;5016993;28;20320;-82
2023/05/30 05:00:40;;;;;;;2.33;1.70;;;14.20;76.30;;;;;;5006931;28;20122;-78
2023/05/30 05:03:08;;;;;;;4.15;2.08;;;14.30;76.00;;;;;;5011885;28;20026;-78
2023/05/30 05:05:34;;;;;;;3.40;1.98;;;14.40;76.00;;;;;;5009748;28;20026;-78
2023/05/30 05:08:00;;;;;;;2.40;1.35;;;14.80;75.90;;;;;;5014151;28;20022;-79
2023/05/30 05:10:26;;;;;;;2.95;1.65;;;16.10;74.00;;;;;;5012732;28;20022;-78
2023/05/30 05:12:52;;;;;;;1.98;1.83;;;16.90;69.20;;;;;;5016001;28;20471;-78
2023/05/30 05:15:18;;;;;;;1.88;1.52;;;17.00;67.50;;;;;;5016097;28;20060;-78
2023/05/30 05:17:44;;;;;;;2.40;1.55;;;17.20;68.00;;;;;;5016988;28;20105;-78
2023/05/30 05:20:10;;;;;;;2.80;1.95;;;17.90;66.40;;;;;;5015764;28;20022;-77
2023/05/30 05:22:36;;;;;;;3.58;1.95;;;18.60;64.10;;;;;;5018007;28;20136;-79
2023/05/30 05:25:03;;;;;;;4.57;2.10;;;;;;;;;;5017075;28;20037;-78
2023/05/30 05:27:29;;;;;;;2.53;2.05;;;19.60;61.30;;;;;;5017431;28;20690;-78
2023/05/30 05:29:55;;;;;;;2.45;2.20;;;20.50;59.80;;;;;;5018042;28;20026;-79
2023/05/30 05:32:21;;;;;;;2.67;2.03;;;20.80;57.20;;;;;;5016325;28;20030;-78
2023/05/30 05:34:46;;;;;;;2.55;2.30;;;20.40;58.30;;;;;;5025254;28;20387;-79
2023/05/30 05:37:13;;;;;;;3.28;1.85;;;;;;;;;;5016879;28;20374;-79
2023/05/30 05:39:38;;;;;;;2.88;2.08;;;21.50;56.50;;;;;;5018051;28;20029;-79
2023/05/30 05:42:04;;;;;;;2.15;1.77;;;22.10;55.20;;;;;;5023434;28;20712;-79
2023/05/30 05:44:30;;;;;;;4.68;1.77;;;22.70;54.20;;;;;;5017200;28;20080;-79
2023/05/30 05:46:56;;;;;;;3.47;2.25;;;22.90;53.10;;;;;;5017084;28;20060;-79
2023/05/30 05:49:22;;;;;;;2.15;1.90;;;23.20;52.90;;;;;;5017459;28;20077;-79
2023/05/30 05:51:53;;;;;;;2.75;1.88;;;23.70;51.80;;;;;;5028519;28;20077;-80
2023/05/30 05:54:19;;;;;;;3.35;1.73;;;24.10;50.40;;;;;;5025848;28;20096;-78
2023/05/30 05:56:45;;;;;;;2.30;2.10;;;24.40;49.80;;;;;;5014552;28;20038;-78
2023/05/30 05:59:12;;;;;;;2.42;2.08;;;24.70;48.80;;;;;;5015798;28;20367;-78
2023/05/30 06:01:38;;;;;;;2.63;2.22;;;24.90;48.20;;;;;;5011012;28;20387;-77
2023/05/30 06:04:10;;;;;;;7.38;3.38;;;25.00;48.20;;;;;;5022622;28;20026;-78
2023/05/30 06:06:36;;;;;;;3.45;2.80;;;25.40;45.80;;;;;;5016886;28;20126;-79
2023/05/30 06:09:02;;;;;;;3.90;2.60;;;25.20;45.90;;;;;;5016506;28;20105;-81
2023/05/30 06:11:28;;;;;;;3.45;2.88;;;24.90;46.10;;;;;;5017834;28;20086;-80
2023/05/30 06:13:53;;;;;;;5.40;3.45;;;24.70;46.10;;;;;;5017493;28;20121;-79
2023/05/30 06:16:19;;;;;;;2.90;2.13;;;24.80;46.70;;;;;;5017111;28;20026;-81
2023/05/30 06:18:45;;;;;;;2.92;2.03;;;25.30;46.60;;;;;;5019791;28;20021;-81
2023/05/30 06:21:11;;;;;;;2.10;1.90;;;25.90;45.70;;;;;;5018410;28;20030;-80
2023/05/30 06:23:37;;;;;;;2.58;1.92;;;26.50;45.20;;;;;;5018594;28;20056;-81
2023/05/30 06:26:05;;;;;;;3.13;2.08;;;27.10;43.90;;;;;;5016148;28;20203;-78
2023/05/30 06:28:31;;;;;;;2.72;2.17;;;27.20;43.50;;;;;;5015966;28;20029;-79
2023/05/30 06:30:57;;;;;;;1.63;1.52;;;27.90;43.30;;;;;;5015876;28;20022;-77
2023/05/30 06:33:22;;;;;;;2.00;1.73;;;28.30;42.20;;;;;;5013945;28;20064;-78
2023/05/30 06:35:48;;;;;;;1.15;1.15;;;28.70;41.50;;;;;;5034677;28;20033;-78
2023/05/30 06:38:17;;;;;;;1.85;1.35;;;28.90;41.30;;;;;;5018231;28;20048;-78
2023/05/30 06:40:43;;;;;;;3.15;1.80;;;29.00;41.00;;;;;;5019277;28;20046;-78
2023/05/30 06:43:08;;;;;;;2.55;1.85;;;29.00;40.70;;;;;;5014242;28;20101;-78
2023/05/30 06:45:34;;;;;;;2.63;2.10;;;28.50;41.70;;;;;;5014272;28;20022;-76
2023/05/30 06:48:01;;;;;;;2.20;2.00;;;28.60;41.40;;;;;;5015432;28;20045;-76
2023/05/30 06:50:27;;;;;;;3.13;2.25;;;28.60;41.50;;;;;;5016835;28;20125;-77
2023/05/30 06:52:53;;;;;;;2.42;2.03;;;28.20;42.00;;;;;;5015153;28;20071;-78
2023/05/30 06:55:19;;;;;;;2.58;2.28;;;;;;;;;;5015085;28;20106;-76
2023/05/30 06:57:45;;;;;;;3.30;1.98;;;27.70;41.10;;;;;;5019397;28;20542;-77
2023/05/30 07:00:11;;;;;;;2.50;1.98;;;27.30;42.70;;;;;;5019292;28;20184;-78
2023/05/30 07:02:37;;;;;;;5.57;2.10;;;27.40;42.60;;;;;;5034703;28;20338;-78
2023/05/30 07:05:03;;;;;;;3.20;2.33;;;27.20;42.60;;;;;;5030918;28;20034;-77
2023/05/30 07:07:29;;;;;;;3.40;2.17;;;27.00;43.20;;;;;;5027699;28;20022;-80
2023/05/30 07:09:55;;;;;;;3.75;2.03;;;27.60;43.20;;;;;;5027696;28;20026;-78
2023/05/30 07:12:21;;;;;;;1.90;1.80;;;27.90;42.60;;;;;;5024280;28;20097;-82
2023/05/30 07:14:46;;;;;;;2.05;1.95;;;26.80;42.40;;;;;;5027829;28;20030;-81
2023/05/30 07:17:12;;;;;;;1.90;1.70;;;25.30;44.30;;;;;;5026176;28;20049;-77
2023/05/30 07:19:39;;;;;;;1.90;1.67;;;23.90;46.80;;;;;;5031305;28;20045;-76
2023/05/30 07:22:05;;;;;;;2.78;2.20;;;22.70;49.00;;;;;;5030573;28;20033;-75
2023/05/30 07:24:31;;;;;;;3.60;2.42;;;21.90;51.00;;;;;;5029702;28;20045;-75
2023/05/30 07:26:57;;;;;;;2.50;2.22;;;21.20;52.10;;;;;;5027118;28;20066;-78
2023/05/30 07:29:22;;;;;;;3.72;2.78;;;20.60;53.30;;;;;;5021060;28;20037;-77
2023/05/30 07:31:48;;;;;;;2.42;2.00;;;20.10;54.70;;;;;;5021818;28;20037;-78
2023/05/30 07:34:14;;;;;;;3.47;2.30;;;19.70;55.70;;;;;;5030821;28;21173;-78
2023/05/30 07:36:40;;;;;;;8.68;3.00;;;19.60;56.50;;;;;;5040445;28;20116;-77
2023/05/30 07:39:06;;;;;;;3.13;2.50;;;19.50;57.40;;;;;;5029650;28;20051;-79
2023/05/30 07:41:31;;;;;;;3.22;2.47;;;19.40;57.90;;;;;;5017403;28;20073;-78
2023/05/30 07:43:57;;;;;;;2.05;1.90;;;19.40;57.90;;;;;;5019401;28;20664;-78
2023/05/30 07:46:23;;;;;;;3.33;2.22;;;19.50;57.70;;;;;;5020704;28;20057;-79
2023/05/30 07:48:49;;;;;;;2.90;2.03;;;19.50;57.60;;;;;;5011621;28;20448;-79
2023/05/30 07:51:19;;;;;;;3.25;2.20;;;19.40;58.20;;;;;;5002366;28;20035;-78
2023/05/30 07:53:46;;;;;;;2.72;1.92;;;19.60;58.20;;;;;;5011101;28;20046;-77
2023/05/30 07:56:12;;;;;;;3.63;2.47;;;19.60;57.90;;;;;;5030101;28;20108;-77
2023/05/30 07:58:38;;;;;;;4.53;2.55;;;19.60;57.90;;;;;;5022558;28;20483;-79
2023/05/30 08:01:05;;;;;;;4.95;2.70;;;19.70;58.20;;;;;;5022867;28;20030;-79
2023/05/30 08:03:30;;;;;;;4.05;2.80;;;19.70;59.00;;;;;;5028939;28;20068;-79
2023/05/30 08:05:56;;;;;;;4.18;2.95;;;19.60;59.40;;;;;;5041020;28;20463;-80
2023/05/30 08:08:22;;;;;;;5.10;2.78;;;19.50;59.30;;;;;;5040304;28;20035;-79
2023/05/30 08:10:51;;;;;;;5.78;3.00;;;19.60;59.60;;;;;;5039904;28;20105;-80
2023/05/30 08:13:18;;;;;;;5.95;3.40;;;19.60;59.30;;;;;;5039771;28;20112;-79
2023/05/30 08:15:44;;;;;;;4.38;2.83;;;19.40;59.40;;;;;;5022533;28;20026;-80
2023/05/30 08:18:11;;;;;;;2.75;2.40;;;19.30;60.40;;;;;;5011308;28;20042;-79
2023/05/30 08:20:36;;;;;;;4.55;3.25;;;19.40;60.70;;;;;;5023278;28;20029;-79
2023/05/30 08:23:03;;;;;;;8.55;3.22;;;19.40;60.40;;;;;;5023658;28;20099;-80
2023/05/30 08:25:33;;;;;;;7.15;3.78;;;19.50;60.40;;;;;;5003232;28;20050;-79
2023/05/30 08:27:59;;;;;;;5.20;2.95;;;19.60;60.00;;;;;;5018215;28;20414;-80
2023/05/30 08:30:25;;;;;;;4.03;2.67;;;19.70;60.30;;;;;;5005348;28;20023;-80
2023/05/30 08:32:51;;;;;;;3.72;2.38;;;19.90;60.20;;;;;;5021415;28;20114;-79
2023/05/30 08:35:17;;;;;;;3.35;2.67;;;20.00;59.50;;;;;;5045334;28;20047;-79
2023/05/30 08:37:43;;;;;;;4.20;2.75;;;20.10;59.50;;;;;;5038508;28;20384;-80
2023/05/30 08:40:19;;;;;;;5.32;2.63;;;20.20;59.30;;;;;;5025113;28;20018;-78
2023/05/30 08:42:44;;;;;;;4.38;2.67;;;20.30;59.10;;;;;;5022562;28;20045;-79
2023/05/30 08:45:11;;;;;;;3.58;2.80;;;20.40;58.40;;;;;;5025032;28;20042;-80
2023/05/30 08:47:36;;;;;;;7.75;3.95;;;20.50;58.50;;;;;;5028559;28;20030;-80
2023/05/30 08:50:04;;;;;;;2.90;2.60;;;20.60;57.80;;;;;;5027349;28;20138;-79
2023/05/30 08:52:32;;;;;;;3.75;3.03;;;20.50;58.40;;;;;;5031279;28;20057;-79
2023/05/30 08:55:18;;;;;;;4.50;2.92;;;20.60;58.50;;;;;;5030339;28;20033;-80
2023/05/30 08:58:12;;;;;;;4.65;3.10;;;20.70;57.80;;;;;;5016948;28;20070;-79
2023/05/30 09:00:38;;;;;;;5.95;3.15;;;20.70;57.50;;;;;;5033567;28;20037;-80
2023/05/30 09:03:05;;;;;;;4.32;2.70;;;20.70;57.50;;;;;;5042299;28;20022;-79
2023/05/30 09:05:35;;;;;;;4.93;2.90;;;20.90;57.70;;;;;;5042339;28;20037;-79
2023/05/30 09:08:02;;;;;;;4.75;2.75;;;21.10;56.90;;;;;;5037013;28;20024;-80
2023/05/30 09:10:29;;;;;;;3.88;2.75;;;21.10;56.50;;;;;;5035479;28;20065;-79
2023/05/30 09:12:57;;;;;;;4.47;2.83;;;21.20;55.80;;;;;;5034763;28;20045;-79
2023/05/30 09:15:23;;;;;;;5.65;3.03;;;21.20;55.40;;;;;;5025472;28;20124;-79
2023/05/30 09:17:49;;;;;;;3.25;2.65;;;21.20;55.20;;;;;;5029920;28;20037;-79
2023/05/30 09:20:17;;;;;;;4.80;3.15;;;21.40;55.30;;;;;;5029757;28;20022;-80
2023/05/30 09:22:44;;;;;;;5.50;2.90;;;21.60;54.90;;;;;;5026295;28;20029;-79
2023/05/30 09:25:16;;;;;;;3.78;2.53;;;21.70;54.50;;;;;;5005781;28;20516;-79
2023/05/30 09:27:54;;;;;;;2.60;2.33;;;21.70;54.40;;;;;;5008581;28;20062;-80
2023/05/30 09:30:20;;;;;;;5.28;2.80;;;21.70;54.40;;;;;;5008285;28;20110;-79
2023/05/30 09:33:05;;;;;;;4.53;2.67;;;21.90;54.30;;;;;;5030931;28;20029;-79
2023/05/30 09:35:30;;;;;;;5.32;2.90;;;22.10;53.90;;;;;;5027851;28;20025;-80
2023/05/30 09:37:56;;;;;;;3.22;2.28;;;22.10;52.90;;;;;;5026480;28;20052;-80
2023/05/30 09:40:23;;;;;;;4.13;2.65;;;22.20;53.20;;;;;;5026962;28;20098;-80
2023/05/30 09:42:51;;;;;;;2.80;2.40;;;22.30;53.00;;;;;;5025658;28;20370;-79
2023/05/30 09:45:23;;;;;;;6.68;3.17;;;22.40;52.90;;;;;;5026434;28;20034;-79
2023/05/30 09:47:51;;;;;;;2.97;2.55;;;22.50;52.50;;;;;;5024217;28;20078;-79
2023/05/30 09:50:26;;;;;;;4.28;2.58;;;22.60;52.70;;;;;;5023192;28;20059;-80
2023/05/30 09:52:51;;;;;;;3.33;2.50;;;22.90;52.70;;;;;;5025310;28;20034;-79
2023/05/30 09:55:18;;;;;;;3.97;2.90;;;23.20;51.70;;;;;;5023449;28;20072;-78
2023/05/30 09:57:48;;;;;;;7.07;4.05;;;23.20;51.60;;;;;;5024794;28;20074;-81
2023/05/30 10:00:16;;;;;;;3.92;2.78;;;23.20;50.60;;;;;;5035791;28;20022;-80
2023/05/30 10:02:44;;;;;;;4.47;3.00;;;23.00;51.60;;;;;;5027533;28;20084;-79
2023/05/30 10:05:29;;;;;;;4.25;2.92;;;23.20;51.30;;;;;;5042916;28;20441;-80
2023/05/30 10:07:56;;;;;;;4.47;2.72;;;23.30;51.20;;;;;;5031072;28;20089;-79
2023/05/30 10:10:23;;;;;;;6.60;2.72;;;23.50;50.80;;;;;;5036131;28;20061;-79
2023/05/30 10:12:51;;;;;;;2.75;2.50;;;23.60;50.20;;;;;;5035893;28;20041;-80
2023/05/30 10:15:18;;;;;;;4.13;2.88;;;;;;;;;;5036253;28;20006;-79
2023/05/30 10:17:59;;;;;;;3.70;2.45;;;23.90;49.20;;;;;;5035440;28;20034;-80
2023/05/30 10:20:27;;;;;;;4.28;3.10;;;24.00;49.70;;;;;;5034027;28;20033;-79
2023/05/30 10:22:53;;;;;;;3.00;2.50;;;24.00;49.50;;;;;;5031380;28;20014;-80
2023/05/30 10:25:20;;;;;;;3.40;2.75;;;24.10;49.50;;;;;;5035806;28;20058;-80
2023/05/30 10:27:53;;;;;;;4.45;3.00;;;24.10;49.00;;;;;;5036258;28;20045;-79
2023/05/30 10:30:23;;;;;;;4.75;2.80;;;24.20;49.00;;;;;;5017002;28;20101;-78
2023/05/30 10:32:59;;;;;;;6.68;3.55;;;24.30;48.80;;;;;;5041136;28;20029;-79
2023/05/30 10:35:26;;;;;;;4.13;3.00;;;24.30;48.40;;;;;;5034254;28;20044;-79
2023/05/30 10:37:52;;;;;;;2.70;2.28;;;24.10;48.70;;;;;;5034569;28;20033;-79
2023/05/30 10:40:29;;;;;;;3.03;2.53;;;24.10;49.00;;;;;;5028813;28;20063;-80
2023/05/30 10:43:13;;;;;;;4.68;2.58;;;24.30;48.70;;;;;;5026709;28;20036;-79
2023/05/30 10:46:01;;;;;;;6.18;2.67;;;24.60;48.30;;;;;;5022568;28;20037;-80
2023/05/30 10:48:44;;;;;;;4.25;3.05;;;24.70;47.70;;;;;;5027702;28;20025;-80
2023/05/30 10:51:11;;;;;;;6.95;2.63;;;24.50;46.70;;;;;;5022179;28;20064;-81
2023/05/30 10:53:45;;;;;;;3.95;2.90;;;24.20;47.60;;;;;;5021209;28;20034;-80
2023/05/30 10:56:40;;;;;;;4.95;2.90;;;23.60;47.60;;;;;;5022599;28;20031;-81
2023/05/30 10:59:18;;;;;;;4.22;2.63;;;23.40;48.40;;;;;;5019909;28;20034;-80
2023/05/30 11:02:00;;;;;;;2.70;2.50;;;23.70;47.40;;;;;;5022930;28;20079;-79
2023/05/30 11:04:34;;;;;;;3.40;2.78;;;24.20;46.70;;;;;;5029878;28;20519;-79
2023/05/30 11:07:04;;;;;;;3.22;2.90;;;24.50;45.00;;;;;;5023210;28;20022;-79
2023/05/30 11:09:30;;;;;;;3.88;3.05;;;24.50;44.80;;;;;;5043324;23;20093;-76
2023/05/30 11:11:57;;;;;;;2.63;2.22;;;24.50;44.50;;;;;;5061693;28;20116;-77
2023/05/30 11:14:26;;;;;;;3.83;2.70;;;24.90;45.10;;;;;;5057492;28;20032;-75
2023/05/30 11:16:55;;;;;;;6.05;2.47;;;25.10;44.40;;;;;;5052792;28;20037;-76
2023/05/30 11:19:25;;;;;;;4.50;2.63;;;25.40;43.50;;;;;;5033110;28;20415;-75
2023/05/30 11:21:55;;;;;;;5.15;2.95;;;25.80;43.00;;;;;;5028958;28;20029;-76
2023/05/30 11:24:21;;;;;;;4.57;2.80;;;26.00;40.90;;;;;;5019849;28;20097;-76
2023/05/30 11:27:06;;;;;;;5.20;2.80;;;26.00;41.80;;;;;;5019508;28;20124;-76
2023/05/30 11:29:47;;;;;;;3.85;2.85;;;25.80;42.70;;;;;;5032445;28;20062;-76
2023/05/30 11:32:17;;;;;;;4.60;2.67;;;25.60;42.80;;;;;;5035587;28;20096;-74
2023/05/30 11:34:43;;;;;;;3.70;2.83;;;25.30;42.70;;;;;;5037355;28;20035;-76
2023/05/30 11:37:10;;;;;;;4.82;2.38;;;25.30;43.20;;;;;;5035891;28;20192;-76
2023/05/30 11:39:36;;;;;;;3.80;2.97;;;25.30;43.00;;;;;;5036424;28;20374;-76
2023/05/30 11:42:05;;;;;;;3.78;2.47;;;25.10;43.00;;;;;;5039114;28;20029;-75
2023/05/30 11:44:31;;;;;;;2.60;2.33;;;24.70;43.70;;;;;;5038610;28;20070;-76
2023/05/30 11:47:01;;;;;;;3.20;2.65;;;24.90;44.60;;;;;;5037052;28;20025;-75
2023/05/30 11:49:27;;;;;;;3.60;2.63;;;25.20;44.30;;;;;;5034839;28;20329;-76
2023/05/30 11:51:53;;;;;;;3.65;2.83;;;25.50;44.60;;;;;;5035305;28;20088;-75
2023/05/30 11:54:19;;;;;;;6.60;3.05;;;25.70;44.20;;;;;;5033854;28;20446;-76
2023/05/30 11:56:47;;;;;;;4.50;2.63;;;26.10;43.10;;;;;;5033297;28;20041;-76
2023/05/30 11:59:17;;;;;;;4.65;2.67;;;26.00;42.70;;;;;;5034011;28;20013;-76
2023/05/30 12:01:44;;;;;;;4.53;3.13;;;25.80;42.70;;;;;;5036850;28;20021;-76
2023/05/30 12:04:09;;;;;;;4.60;3.15;;;25.70;43.40;;;;;;5032996;28;20540;-76
2023/05/30 12:06:35;;;;;;;5.43;2.88;;;25.50;43.40;;;;;;5034672;28;20036;-76
2023/05/30 12:09:01;;;;;;;3.55;2.58;;;25.00;43.70;;;;;;5035044;28;20036;-75
2023/05/30 12:11:26;;;;;;;4.93;2.60;;;24.60;44.50;;;;;;5040618;28;20025;-76
2023/05/30 12:13:55;;;;;;;4.97;2.80;;;24.80;44.80;;;;;;5042099;28;20029;-75
2023/05/30 12:16:20;;;;;;;4.20;2.97;;;25.00;45.20;;;;;;5034517;28;20474;-74
2023/05/30 12:18:49;;;;;;;10.88;3.58;;;25.10;44.90;;;;;;5033876;28;20116;-76
2023/05/30 12:21:15;;;;;;;3.03;2.75;;;24.80;43.90;;;;;;5036377;28;20021;-76
2023/05/30 12:23:42;;;;;;;4.30;2.75;;;24.40;45.00;;;;;;5038091;28;20537;-76
2023/05/30 12:26:16;;;;;;;3.72;2.88;;;24.40;45.20;;;;;;5037521;28;20048;-75
2023/05/30 12:28:46;;;;;;;3.95;2.40;;;24.90;44.60;;;;;;5038664;28;20026;-75
2023/05/30 12:31:24;;;;;;;4.40;2.67;;;25.40;44.30;;;;;;5038578;28;20064;-76
2023/05/30 12:33:50;;;;;;;3.80;3.25;;;25.80;42.90;;;;;;5038373;28;20033;-76
2023/05/30 12:36:16;;;;;;;4.93;2.70;;;25.90;42.10;;;;;;5037746;28;20026;-75
2023/05/30 12:38:42;;;;;;;4.07;3.15;;;25.70;43.00;;;;;;5037624;28;20036;-75
2023/05/30 12:41:07;;;;;;;5.15;2.47;;;25.60;43.50;;;;;;5053351;28;20036;-76
2023/05/30 12:43:33;;;;;;;3.90;2.78;;;25.80;44.00;;;;;;5048807;28;20029;-74
2023/05/30 12:46:08;;;;;;;3.00;2.33;;;26.10;43.10;;;;;;5036969;28;20029;-76
2023/05/30 12:48:34;;;;;;;2.60;2.22;;;26.10;43.30;;;;;;5036485;28;20359;-75
2023/05/30 12:51:00;;;;;;;6.68;3.70;;;26.20;42.80;;;;;;5037493;28;20097;-76
2023/05/30 12:53:27;;;;;;;6.72;3.47;;;26.30;42.60;;;;;;5037395;28;20049;-76